createdAt,value
2023-04-19T00:01:09.160Z,99.90
2023-04-19T00:03:35.972Z,99.90
2023-04-19T00:06:02.896Z,99.90
2023-04-19T00:08:29.507Z,99.90
2023-04-19T00:10:56.178Z,99.90
2023-04-19T00:13:22.882Z,99.90
2023-04-19T00:15:49.569Z,99.90
2023-04-19T00:18:16.198Z,99.90
2023-04-19T00:20:42.927Z,99.90
2023-04-19T00:23:09.611Z,99.90
2023-04-19T00:25:36.434Z,99.90
2023-04-19T00:28:03.808Z,99.90
2023-04-19T00:30:30.442Z,99.90
2023-04-19T00:32:57.105Z,99.90
2023-04-19T00:35:23.783Z,99.90
2023-04-19T00:37:50.638Z,99.90
2023-04-19T00:40:17.249Z,99.90
2023-04-19T00:42:43.857Z,99.90
2023-04-19T00:45:11.236Z,99.90
2023-04-19T00:47:38.690Z,99.90
2023-04-19T00:50:06.071Z,99.90
2023-04-19T00:52:34.093Z,99.90
2023-04-19T00:55:01.436Z,99.90
2023-04-19T00:57:29.566Z,99.90
2023-04-19T00:59:57.771Z,99.90
2023-04-19T01:02:24.728Z,99.90
2023-04-19T01:04:51.743Z,99.90
2023-04-19T01:07:19.705Z,99.90
2023-04-19T01:09:46.982Z,99.90
2023-04-19T01:12:13.631Z,99.90
2023-04-19T01:14:40.416Z,99.90
2023-04-19T01:17:07.812Z,99.90
2023-04-19T01:19:34.868Z,99.90
2023-04-19T01:22:02.948Z,99.90
2023-04-19T01:24:33.558Z,99.90
2023-04-19T01:27:00.790Z,99.90
2023-04-19T01:29:27.568Z,99.90
2023-04-19T01:31:54.244Z,99.90
2023-04-19T01:34:22.975Z,99.90
2023-04-19T01:36:49.926Z,99.90
2023-04-19T01:39:16.848Z,99.90
2023-04-19T01:41:43.511Z,99.90
2023-04-19T01:44:10.236Z,99.90
2023-04-19T01:46:38.740Z,99.90
2023-04-19T01:49:05.378Z,99.90
2023-04-19T01:51:32.101Z,99.90
2023-04-19T01:53:58.759Z,99.90
2023-04-19T01:56:26.068Z,99.90
2023-04-19T01:58:52.709Z,99.90
2023-04-19T02:01:19.384Z,99.90
2023-04-19T02:03:46.405Z,99.90
2023-04-19T02:06:13.642Z,99.90
2023-04-19T02:08:41.534Z,99.90
2023-04-19T02:11:14.385Z,99.90
2023-04-19T02:13:41.745Z,99.90
2023-04-19T02:16:09.905Z,99.90
2023-04-19T02:18:38.401Z,99.90
2023-04-19T02:21:06.356Z,99.90
2023-04-19T02:23:33.093Z,99.90
2023-04-19T02:26:01.376Z,99.90
2023-04-19T02:28:27.957Z,99.90
2023-04-19T02:30:54.547Z,99.90
2023-04-19T02:33:22.198Z,99.90
2023-04-19T02:35:48.798Z,99.90
2023-04-19T02:38:15.452Z,99.90
2023-04-19T02:40:42.100Z,99.90
2023-04-19T02:43:08.689Z,99.90
2023-04-19T02:45:36.188Z,99.90
2023-04-19T02:48:02.919Z,99.90
2023-04-19T02:50:29.635Z,99.90
2023-04-19T02:52:57.849Z,99.90
2023-04-19T02:55:24.512Z,99.90
2023-04-19T02:57:51.859Z,99.90
2023-04-19T03:00:18.686Z,99.90
2023-04-19T03:02:45.377Z,99.90
2023-04-19T03:05:12.202Z,99.90
2023-04-19T03:07:42.535Z,99.90
2023-04-19T03:10:11.030Z,99.90
2023-04-19T03:12:37.702Z,99.90
2023-04-19T03:15:04.888Z,99.90
2023-04-19T03:17:31.724Z,99.90
2023-04-19T03:19:58.917Z,99.90
2023-04-19T03:22:25.578Z,99.90
2023-04-19T03:24:52.220Z,99.90
2023-04-19T03:27:18.899Z,99.90
2023-04-19T03:29:47.196Z,99.90
2023-04-19T03:32:14.980Z,99.90
2023-04-19T03:34:41.552Z,99.90
2023-04-19T03:37:08.205Z,99.90
2023-04-19T03:39:34.861Z,99.90
2023-04-19T03:42:01.531Z,99.90
2023-04-19T03:44:28.174Z,99.90
2023-04-19T03:46:54.847Z,99.90
2023-04-19T03:49:21.424Z,99.90
2023-04-19T03:51:48.112Z,99.90
2023-04-19T03:54:14.977Z,99.90
2023-04-19T03:56:41.863Z,99.90
2023-04-19T03:59:09.666Z,99.90
2023-04-19T04:01:41.933Z,99.90
2023-04-19T04:04:09.272Z,99.90
2023-04-19T04:06:36.146Z,99.90
2023-04-19T04:09:02.859Z,99.90
2023-04-19T04:11:29.848Z,99.90
2023-04-19T04:13:56.782Z,99.90
2023-04-19T04:16:23.449Z,99.90
2023-04-19T04:18:50.117Z,99.90
2023-04-19T04:21:16.817Z,99.90
2023-04-19T04:23:43.480Z,99.90
2023-04-19T04:26:10.978Z,99.90
2023-04-19T04:28:37.996Z,99.90
2023-04-19T04:31:04.768Z,99.90
2023-04-19T04:33:31.649Z,99.90
2023-04-19T04:35:59.084Z,99.90
2023-04-19T04:38:26.421Z,99.90
2023-04-19T04:40:54.183Z,99.90
2023-04-19T04:43:25.697Z,99.90
2023-04-19T04:45:55.467Z,99.90
2023-04-19T04:48:22.325Z,99.90
2023-04-19T04:50:48.916Z,99.90
2023-04-19T04:53:15.898Z,99.90
2023-04-19T04:55:42.496Z,99.90
2023-04-19T04:58:09.152Z,99.90
2023-04-19T05:00:35.837Z,99.90
2023-04-19T05:03:02.990Z,99.90
2023-04-19T05:05:30.127Z,99.90
2023-04-19T05:07:56.753Z,99.90
2023-04-19T05:10:23.463Z,99.90
2023-04-19T05:12:50.107Z,99.90
2023-04-19T05:15:16.766Z,99.90
2023-04-19T05:17:43.508Z,99.90
2023-04-19T05:20:10.694Z,99.90
2023-04-19T05:22:37.712Z,99.90
2023-04-19T05:25:05.033Z,99.90
2023-04-19T05:27:31.843Z,99.90
2023-04-19T05:29:58.491Z,99.90
2023-04-19T05:32:25.190Z,99.90
2023-04-19T05:34:51.851Z,99.90
2023-04-19T05:37:18.446Z,99.90
2023-04-19T05:39:45.178Z,99.90
2023-04-19T05:42:11.852Z,99.90
2023-04-19T05:44:38.448Z,99.90
2023-04-19T05:47:05.341Z,99.90
2023-04-19T05:49:32.032Z,99.90
2023-04-19T05:51:58.651Z,99.90
2023-04-19T05:54:25.388Z,99.90
2023-04-19T05:56:52.098Z,99.90
2023-04-19T05:59:18.709Z,99.90
2023-04-19T06:01:45.600Z,99.90
2023-04-19T06:04:12.449Z,99.90
2023-04-19T06:06:39.223Z,99.90
2023-04-19T06:09:07.040Z,99.90
2023-04-19T06:11:42.970Z,99.90
2023-04-19T06:14:14.800Z,99.90
2023-04-19T06:16:42.082Z,99.90
2023-04-19T06:19:08.966Z,99.90
2023-04-19T06:21:35.798Z,99.90
2023-04-19T06:24:02.485Z,99.90
2023-04-19T06:26:29.125Z,99.90
2023-04-19T06:28:55.932Z,99.90
2023-04-19T06:31:23.032Z,99.90
2023-04-19T06:33:49.913Z,99.90
2023-04-19T06:36:16.658Z,99.90
2023-04-19T06:38:44.611Z,99.90
2023-04-19T06:41:11.335Z,99.90
2023-04-19T06:43:40.589Z,99.90
2023-04-19T06:46:07.351Z,99.90
2023-04-19T06:48:34.831Z,99.90
2023-04-19T06:51:01.835Z,99.90
2023-04-19T06:53:28.485Z,99.90
2023-04-19T06:56:02.897Z,99.90
2023-04-19T06:58:31.116Z,99.90
2023-04-19T07:01:00.186Z,99.90
2023-04-19T07:03:27.166Z,99.90
2023-04-19T07:05:56.047Z,99.90
2023-04-19T07:08:27.917Z,99.90
2023-04-19T07:10:58.927Z,99.90
2023-04-19T07:13:25.528Z,99.90
2023-04-19T07:15:52.178Z,99.90
2023-04-19T07:18:18.868Z,99.90
2023-04-19T07:20:48.492Z,99.90
2023-04-19T07:23:15.650Z,99.90
2023-04-19T07:25:42.332Z,99.90
2023-04-19T07:28:08.996Z,99.90
2023-04-19T07:30:36.217Z,99.90
2023-04-19T07:33:04.798Z,99.90
2023-04-19T07:35:31.578Z,99.90
2023-04-19T07:37:58.197Z,99.90
2023-04-19T07:40:24.963Z,99.90
2023-04-19T07:42:51.628Z,99.90
2023-04-19T07:45:18.344Z,99.90
2023-04-19T07:47:45.393Z,99.90
2023-04-19T07:50:12.486Z,99.90
2023-04-19T07:52:39.191Z,99.90
2023-04-19T07:55:06.847Z,99.90
2023-04-19T07:57:34.777Z,99.90
2023-04-19T08:00:02.166Z,99.90
2023-04-19T08:02:28.882Z,99.90
2023-04-19T08:04:56.573Z,99.90
2023-04-19T08:07:23.654Z,99.90
2023-04-19T08:09:50.322Z,99.90
2023-04-19T08:12:31.012Z,99.90
2023-04-19T08:15:15.038Z,99.90
2023-04-19T08:17:48.601Z,99.90
2023-04-19T08:20:16.120Z,99.90
2023-04-19T08:22:42.722Z,99.90
2023-04-19T08:25:09.823Z,99.90
2023-04-19T08:27:36.445Z,99.90
2023-04-19T08:30:03.602Z,99.90
2023-04-19T08:32:30.362Z,99.90
2023-04-19T08:34:57.426Z,99.90
2023-04-19T08:37:24.161Z,99.90
2023-04-19T08:39:51.072Z,99.90
2023-04-19T08:45:13.171Z,99.90
2023-04-19T08:50:24.123Z,99.90
2023-04-19T08:53:05.207Z,99.90
2023-04-19T08:56:03.436Z,99.90
2023-04-19T09:01:08.356Z,99.90
2023-04-19T09:03:59.460Z,99.90
2023-04-19T09:06:37.404Z,99.90
2023-04-19T09:09:33.376Z,99.90
2023-04-19T09:12:03.273Z,99.90
2023-04-19T09:14:30.131Z,99.90
2023-04-19T09:17:17.129Z,99.90
2023-04-19T09:19:48.707Z,99.90
2023-04-19T09:22:15.678Z,99.90
2023-04-19T09:27:12.478Z,99.90
2023-04-19T09:29:39.530Z,99.90
2023-04-19T09:32:06.619Z,99.90
2023-04-19T09:34:33.344Z,99.90
2023-04-19T09:37:20.797Z,99.90
2023-04-19T09:39:54.783Z,99.90
2023-04-19T09:42:42.341Z,99.90
2023-04-19T09:47:38.593Z,99.90
2023-04-19T09:50:21.885Z,99.90
2023-04-19T09:52:51.299Z,99.90
2023-04-19T09:57:48.791Z,99.90
2023-04-19T10:00:16.025Z,99.90
2023-04-19T10:02:44.424Z,99.90
2023-04-19T10:05:20.497Z,99.90
2023-04-19T10:07:49.275Z,99.90
2023-04-19T10:10:20.779Z,99.90
2023-04-19T10:15:23.673Z,99.90
2023-04-19T10:17:51.521Z,99.90
2023-04-19T10:20:32.960Z,99.90
2023-04-19T10:23:00.454Z,99.90
2023-04-19T10:25:30.888Z,99.70
2023-04-19T10:27:58.201Z,97.90
2023-04-19T10:30:28.502Z,98.20
2023-04-19T10:32:57.433Z,98.50
2023-04-19T10:35:29.423Z,99.10
2023-04-19T10:38:13.839Z,98.60
2023-04-19T10:40:53.973Z,98.60
2023-04-19T10:43:21.208Z,98.10
2023-04-19T10:45:48.172Z,96.30
2023-04-19T10:48:30.765Z,97.20
2023-04-19T10:50:58.742Z,95.60
2023-04-19T10:53:50.810Z,92.70
2023-04-19T10:56:32.717Z,90.80
2023-04-19T10:59:02.334Z,88.20
2023-04-19T11:01:33.774Z,86.70
2023-04-19T11:04:01.047Z,85.20
2023-04-19T11:06:28.151Z,83.50
2023-04-19T11:08:54.998Z,81.30
2023-04-19T11:11:21.661Z,79.60
2023-04-19T11:13:48.804Z,78.30
2023-04-19T11:16:17.745Z,78.20
2023-04-19T11:18:45.678Z,78.50
2023-04-19T11:21:18.025Z,80.80
2023-04-19T11:23:44.723Z,80.30
2023-04-19T11:26:14.048Z,75.20
2023-04-19T11:28:41.135Z,70.10
2023-04-19T11:31:08.240Z,66.90
2023-04-19T11:33:36.534Z,65.60
2023-04-19T11:36:03.769Z,65.40
2023-04-19T11:38:31.145Z,63.90
2023-04-19T11:41:02.015Z,64.40
2023-04-19T11:43:38.013Z,63.20
2023-04-19T11:46:09.435Z,62.10
2023-04-19T11:48:36.393Z,60.90
2023-04-19T11:51:04.046Z,62.40
2023-04-19T11:53:32.604Z,60.20
2023-04-19T11:56:06.857Z,60.40
2023-04-19T11:58:50.632Z,59.20
2023-04-19T12:01:20.253Z,59.60
2023-04-19T12:03:55.346Z,59.60
2023-04-19T12:06:31.564Z,59.90
2023-04-19T12:08:58.698Z,57.10
2023-04-19T12:11:41.751Z,55.10
2023-04-19T12:14:09.475Z,55.50
2023-04-19T12:16:36.267Z,55.00
2023-04-19T12:19:15.049Z,53.00
2023-04-19T12:21:41.905Z,51.80
2023-04-19T12:24:08.801Z,49.50
2023-04-19T12:26:36.251Z,49.10
2023-04-19T12:29:03.709Z,47.10
2023-04-19T12:31:33.481Z,47.50
2023-04-19T12:34:00.188Z,45.70
2023-04-19T12:36:27.961Z,47.20
2023-04-19T12:38:54.548Z,46.60
2023-04-19T12:41:21.312Z,43.60
2023-04-19T12:43:48.022Z,43.30
2023-04-19T12:46:14.691Z,42.90
2023-04-19T12:48:41.331Z,41.40
2023-04-19T12:51:08.861Z,41.90
2023-04-19T12:53:35.638Z,41.20
2023-04-19T12:56:02.252Z,39.70
2023-04-19T12:58:28.859Z,37.60
2023-04-19T13:00:55.562Z,37.90
2023-04-19T13:03:22.386Z,38.30
2023-04-19T13:05:49.207Z,38.90
2023-04-19T13:08:16.766Z,38.90
2023-04-19T13:10:43.429Z,37.50
2023-04-19T13:13:10.077Z,35.90
2023-04-19T13:15:36.764Z,36.10
2023-04-19T13:18:03.585Z,37.30
2023-04-19T13:20:30.264Z,36.80
2023-04-19T13:22:56.849Z,33.90
2023-04-19T13:25:23.472Z,34.80
2023-04-19T13:27:51.414Z,34.00
2023-04-19T13:30:18.105Z,33.80
2023-04-19T13:32:44.810Z,31.70
2023-04-19T13:35:11.632Z,34.10
2023-04-19T13:37:40.490Z,34.20
2023-04-19T13:40:18.639Z,34.80
2023-04-19T13:42:46.284Z,34.20
2023-04-19T13:45:13.111Z,34.60
2023-04-19T13:47:39.746Z,34.40
2023-04-19T13:50:07.037Z,34.20
2023-04-19T13:52:33.706Z,33.90
2023-04-19T13:55:00.558Z,34.40
2023-04-19T13:57:27.347Z,34.40
2023-04-19T13:59:53.935Z,34.50
2023-04-19T14:02:20.669Z,34.20
2023-04-19T14:04:47.341Z,35.10
2023-04-19T14:07:14.017Z,36.30
2023-04-19T14:09:42.272Z,36.70
2023-04-19T14:12:09.256Z,37.00
2023-04-19T14:14:36.018Z,36.10
2023-04-19T14:17:02.635Z,35.10
2023-04-19T14:19:29.253Z,34.20
2023-04-19T14:21:56.281Z,31.80
2023-04-19T14:24:23.149Z,30.50
2023-04-19T14:27:03.153Z,29.20
2023-04-19T14:29:36.153Z,30.90
2023-04-19T14:32:17.078Z,32.60
2023-04-19T14:34:51.405Z,33.50
2023-04-19T14:37:18.864Z,33.20
2023-04-19T14:39:45.993Z,29.30
2023-04-19T14:42:12.714Z,28.20
2023-04-19T14:44:40.331Z,27.00
2023-04-19T14:47:07.377Z,27.20
2023-04-19T14:49:34.147Z,28.90
2023-04-19T14:52:00.829Z,30.20
2023-04-19T14:54:27.785Z,30.60
2023-04-19T14:56:54.405Z,33.10
2023-04-19T14:59:21.385Z,35.20
2023-04-19T15:01:48.109Z,32.20
2023-04-19T15:04:15.022Z,32.90
2023-04-19T15:06:41.767Z,33.50
2023-04-19T15:09:08.439Z,34.80
2023-04-19T15:11:35.157Z,34.80
2023-04-19T15:14:02.208Z,36.50
2023-04-19T15:16:29.004Z,37.10
2023-04-19T15:18:55.769Z,36.30
2023-04-19T15:21:24.506Z,34.80
2023-04-19T15:23:51.579Z,33.40
2023-04-19T15:26:18.271Z,32.30
2023-04-19T15:28:44.965Z,32.00
2023-04-19T15:31:11.762Z,34.40
2023-04-19T15:33:38.479Z,35.30
2023-04-19T15:36:05.545Z,34.00
2023-04-19T15:38:32.849Z,34.10
2023-04-19T15:41:02.871Z,32.50
2023-04-19T15:43:29.551Z,31.60
2023-04-19T15:45:56.175Z,29.90
2023-04-19T15:48:22.890Z,28.80
2023-04-19T15:50:49.641Z,28.30
2023-04-19T15:53:16.507Z,27.90
2023-04-19T15:55:44.028Z,28.40
2023-04-19T15:58:10.654Z,27.70
2023-04-19T16:00:37.249Z,26.70
2023-04-19T16:03:04.670Z,27.10
2023-04-19T16:05:31.417Z,27.20
2023-04-19T16:08:11.814Z,28.20
2023-04-19T16:10:39.340Z,29.70
2023-04-19T16:13:06.209Z,31.80
2023-04-19T16:15:33.077Z,31.70
2023-04-19T16:17:59.796Z,31.80
2023-04-19T16:20:26.671Z,32.60
2023-04-19T16:22:53.350Z,32.00
2023-04-19T16:25:20.116Z,32.60
2023-04-19T16:27:47.322Z,33.00
2023-04-19T16:30:15.194Z,32.90
2023-04-19T16:32:42.511Z,31.40
2023-04-19T16:35:10.013Z,30.90
2023-04-19T16:37:36.887Z,32.30
2023-04-19T16:40:08.316Z,33.80
2023-04-19T16:42:36.238Z,35.20
2023-04-19T16:45:04.190Z,34.80
2023-04-19T16:47:34.797Z,34.40
2023-04-19T16:50:02.392Z,33.90
2023-04-19T16:52:30.757Z,34.50
2023-04-19T16:54:57.557Z,34.70
2023-04-19T16:57:24.289Z,35.10
2023-04-19T16:59:50.896Z,35.50
2023-04-19T17:02:34.766Z,36.10
2023-04-19T17:05:06.642Z,35.00
2023-04-19T17:07:33.332Z,35.60
2023-04-19T17:10:00.161Z,37.30
2023-04-19T17:12:26.916Z,38.50
2023-04-19T17:14:53.505Z,40.30
2023-04-19T17:17:20.984Z,42.00
2023-04-19T17:19:47.576Z,43.10
2023-04-19T17:22:17.235Z,44.00
2023-04-19T17:24:43.912Z,44.40
2023-04-19T17:27:10.582Z,45.00
2023-04-19T17:29:37.494Z,45.30
2023-04-19T17:32:04.745Z,45.70
2023-04-19T17:34:34.670Z,46.50
2023-04-19T17:37:02.873Z,46.70
2023-04-19T17:39:29.627Z,46.70
2023-04-19T17:41:56.465Z,47.20
2023-04-19T17:44:23.493Z,47.70
2023-04-19T17:46:50.277Z,48.20
2023-04-19T17:49:18.868Z,49.70
2023-04-19T17:51:46.243Z,50.20
2023-04-19T17:54:13.063Z,50.70
2023-04-19T17:56:39.660Z,51.80
2023-04-19T17:59:06.294Z,52.50
2023-04-19T18:01:34.984Z,52.50
2023-04-19T18:04:02.012Z,52.90
2023-04-19T18:06:28.869Z,53.50
2023-04-19T18:08:55.513Z,54.00
2023-04-19T18:11:22.769Z,54.40
2023-04-19T18:13:49.418Z,55.00
2023-04-19T18:16:17.130Z,55.60
2023-04-19T18:18:43.886Z,56.10
2023-04-19T18:21:10.638Z,57.10
2023-04-19T18:23:37.369Z,56.90
2023-04-19T18:26:04.131Z,57.30
2023-04-19T18:28:31.117Z,57.50
2023-04-19T18:30:57.842Z,57.60
2023-04-19T18:33:24.686Z,58.00
2023-04-19T18:35:53.066Z,58.30
2023-04-19T18:38:20.816Z,58.10
2023-04-19T18:40:47.633Z,58.00
2023-04-19T18:43:14.297Z,58.60
2023-04-19T18:45:40.978Z,59.30
2023-04-19T18:48:07.897Z,59.30
2023-04-19T18:50:35.877Z,59.20
2023-04-19T18:53:02.596Z,59.60
2023-04-19T18:55:30.926Z,60.10
2023-04-19T18:57:57.533Z,60.70
2023-04-19T19:00:25.083Z,61.20
2023-04-19T19:02:52.952Z,61.80
2023-04-19T19:05:20.234Z,62.20
2023-04-19T19:07:47.407Z,62.50
2023-04-19T19:10:19.271Z,62.50
2023-04-19T19:12:48.751Z,63.10
2023-04-19T19:15:15.658Z,63.60
2023-04-19T19:17:43.112Z,64.10
2023-04-19T19:20:10.167Z,64.20
2023-04-19T19:22:36.898Z,64.50
2023-04-19T19:25:04.436Z,66.00
2023-04-19T19:27:31.350Z,65.60
2023-04-19T19:29:58.748Z,66.10
2023-04-19T19:32:25.797Z,67.10
2023-04-19T19:34:56.378Z,67.90
2023-04-19T19:37:26.863Z,68.80
2023-04-19T19:39:55.934Z,69.20
2023-04-19T19:42:23.569Z,69.50
2023-04-19T19:44:54.213Z,70.10
2023-04-19T19:47:21.371Z,70.80
2023-04-19T19:50:17.483Z,72.10
2023-04-19T19:52:35.822Z,71.90
2023-04-19T19:55:02.584Z,73.30
2023-04-19T19:58:16.343Z,74.20
2023-04-19T20:00:42.106Z,75.50
2023-04-19T20:03:06.680Z,77.60
2023-04-19T20:05:34.192Z,78.80
2023-04-19T20:08:13.946Z,79.80
2023-04-19T20:10:42.404Z,81.70
2023-04-19T20:13:09.305Z,82.70
2023-04-19T20:15:37.504Z,83.90
2023-04-19T20:18:04.428Z,84.60
2023-04-19T20:20:31.433Z,85.80
2023-04-19T20:22:58.032Z,87.50
2023-04-19T20:25:24.791Z,87.80
2023-04-19T20:27:51.587Z,88.90
2023-04-19T20:30:18.248Z,90.00
2023-04-19T20:32:45.033Z,90.50
2023-04-19T20:35:14.713Z,91.10
2023-04-19T20:37:41.903Z,91.50
2023-04-19T20:40:13.890Z,92.10
2023-04-19T20:42:41.282Z,92.40
2023-04-19T20:45:10.455Z,92.70
2023-04-19T20:47:38.293Z,93.30
2023-04-19T20:50:06.940Z,94.00
2023-04-19T20:52:34.681Z,94.70
2023-04-19T20:55:01.572Z,95.30
2023-04-19T20:57:28.242Z,95.90
2023-04-19T20:59:54.836Z,96.30
2023-04-19T21:02:21.545Z,96.70
2023-04-19T21:04:48.257Z,97.10
2023-04-19T21:07:14.874Z,98.00
2023-04-19T21:09:41.516Z,98.70
2023-04-19T21:12:08.208Z,99.10
2023-04-19T21:14:34.890Z,99.40
2023-04-19T21:17:03.154Z,99.70
2023-04-19T21:19:29.881Z,99.90
2023-04-19T21:21:56.519Z,99.90
2023-04-19T21:24:23.142Z,99.90
2023-04-19T21:26:49.822Z,99.90
2023-04-19T21:29:16.702Z,99.90
2023-04-19T21:31:43.766Z,99.90
2023-04-19T21:34:10.414Z,99.90
2023-04-19T21:36:37.127Z,99.90
2023-04-19T21:39:04.111Z,99.90
2023-04-19T21:41:30.793Z,99.90
2023-04-19T21:43:57.393Z,99.90
2023-04-19T21:46:24.190Z,99.90
2023-04-19T21:48:51.446Z,99.90
2023-04-19T21:51:19.111Z,99.90
2023-04-19T21:53:45.777Z,99.90
2023-04-19T21:56:12.485Z,99.90
2023-04-19T21:58:39.160Z,99.90
2023-04-19T22:01:06.509Z,99.90
2023-04-19T22:03:33.337Z,99.90
2023-04-19T22:06:01.872Z,99.90
2023-04-19T22:08:30.886Z,99.90
2023-04-19T22:11:00.201Z,99.90
2023-04-19T22:13:28.214Z,99.90
2023-04-19T22:15:56.936Z,99.90
2023-04-19T22:18:23.820Z,99.90
2023-04-19T22:20:51.916Z,99.90
2023-04-19T22:23:18.787Z,99.90
2023-04-19T22:25:45.875Z,99.90
2023-04-19T22:28:12.552Z,99.90
2023-04-19T22:30:39.156Z,99.90
2023-04-19T22:33:06.014Z,99.90
2023-04-19T22:35:32.693Z,99.90
2023-04-19T22:37:59.284Z,99.90
2023-04-19T22:40:26.015Z,99.90
2023-04-19T22:42:52.645Z,99.90
2023-04-19T22:45:19.285Z,99.90
2023-04-19T22:47:46.005Z,99.90
2023-04-19T22:50:12.789Z,99.90
2023-04-19T22:52:40.770Z,99.90
2023-04-19T22:55:07.684Z,99.90
2023-04-19T22:57:37.074Z,99.90
2023-04-19T23:00:05.293Z,99.90
2023-04-19T23:02:32.061Z,99.90
2023-04-19T23:05:00.550Z,99.90
2023-04-19T23:07:28.668Z,99.90
2023-04-19T23:09:55.976Z,99.90
2023-04-19T23:12:23.908Z,99.90
2023-04-19T23:14:50.852Z,99.90
2023-04-19T23:17:17.849Z,99.90
2023-04-19T23:19:44.688Z,99.90
2023-04-19T23:22:11.320Z,99.90
2023-04-19T23:24:37.934Z,99.90
2023-04-19T23:27:04.855Z,99.90
2023-04-19T23:29:31.592Z,99.90
2023-04-19T23:31:58.225Z,99.90
2023-04-19T23:34:24.903Z,99.90
2023-04-19T23:36:51.745Z,99.90
2023-04-19T23:39:18.994Z,99.90
2023-04-19T23:41:45.970Z,99.90
2023-04-19T23:44:12.637Z,99.90
2023-04-19T23:46:39.249Z,99.90
2023-04-19T23:49:07.296Z,99.90
2023-04-19T23:51:33.972Z,99.90
2023-04-19T23:54:00.729Z,99.90
2023-04-19T23:56:27.328Z,99.90
